• Join FlightAware (Why Join?)
  • Login
  • US Flag 
02:55AM EDT


 

Airport Tracker/Info


-or-


 

Live Flight TrackerFlight Track Log ✈ SKW7367 ✈ 24-Sep-2013 ✈ KDTW - KAPN

Flight Track Log - Related Links

Times and Time Zones

All times are in EDT time to prevent confusion due to time zone crossing. See the SKW7367 flight status page for this flight to view local times or setup timezone preferences in your user account.

Time Position Orientation Groundspeed Altitude Reporting Facility
EDT Latitude Longitude Course Direction KTS MPH feet Rate Location/Type
04:18PM 42.2081 -83.3675 North 156 180 1,200  Level Cleveland Center
04:19PM 42.1869 -83.3983 227° Southwest 203 234 2,600 2,700 Climbing Cleveland Center
04:20PM 42.1394 -83.4675 227° Southwest 264 304 5,700 2,940 Climbing Cleveland Center
04:20PM 42.1319 -83.4756 219° Southwest 261 300 6,100 3,000 Climbing Cleveland Center
04:21PM 42.5272 -83.3752 North  Level Estimated
04:21PM 42.1356 -83.5683 273° West 303 349 9,100  Level Cleveland Center
04:21PM 42.1361 -83.5711 285° West 292 336 9,200 840 Climbing Cleveland Center
04:22PM 42.6321 -83.3825 North  Level Estimated
04:22PM 42.2033 -83.6403 323° Northwest 320 368 10,000  Level Cleveland Center
04:22PM 42.2056 -83.6422 327° Northwest 312 359 10,000 1,560 Level Cleveland Center
04:23PM 42.7370 -83.3898 North  Level Estimated
04:23PM 42.2914 -83.6622 350° North 319 367 11,800  Level Cleveland Center
04:24PM 42.3814 -83.6164 21° North 338 389 13,300 1,020 Climbing Cleveland Center
04:25PM 42.4711 -83.5744 19° North 338 389 14,000 300 Climbing Cleveland Center
04:26PM 42.5533 -83.5347 20° North 316 364 14,000  Level Cleveland Center
04:27PM 42.6444 -83.4933 18° North 292 336 14,000  Level Cleveland Center
04:28PM 42.7233 -83.4553 20° North 297 342 14,000  Level Cleveland Center
04:29PM 42.8025 -83.4169 20° North 302 348 14,000  Level Cleveland Center
04:30PM 42.8797 -83.3797 19° North 296 341 14,000  Level Cleveland Center
04:31PM 42.9592 -83.3653 North 289 333 14,000  Level Cleveland Center
04:32PM 43.0414 -83.3678 359° North 293 337 14,000  Level Cleveland Center
04:33PM 43.1194 -83.4361 327° Northwest 293 337 14,000  Level Cleveland Center
04:34PM 43.1744 -83.5203 312° West 296 341 14,000  Level Cleveland Center
04:35PM 43.2294 -83.6044 312° West 297 342 14,000  Level Cleveland Center
04:36PM 43.2836 -83.6872 312° West 293 337 14,000  Level Cleveland Center
04:37PM 43.3381 -83.7725 311° West 297 342 14,000  Level Cleveland Center
04:38PM 43.3958 -83.8636 311° West 300 345 14,000  Level Minneapolis Center
04:39PM 43.4500 -83.9506 311° West 300 345 14,000  Level Minneapolis Center
04:40PM 43.5047 -84.0372 311° West 300 345 14,000  Level Minneapolis Center
04:41PM 43.5822 -84.0592 348° North 305 351 14,000  Level Minneapolis Center
04:42PM 43.6622 -84.0336 13° North 298 343 14,000  Level Minneapolis Center
04:43PM 43.7583 -84.0025 13° North 297 342 14,000  Level Minneapolis Center
04:44PM 43.8389 -83.9758 13° North 296 341 14,000  Level Minneapolis Center
04:46PM 43.9192 -83.9497 13° North 298 343 14,000  Level Minneapolis Center
04:47PM 44.0042 -83.9217 13° North 297 342 14,000  Level Minneapolis Center
04:48PM 44.0906 -83.8944 13° North 297 342 14,000  Level Minneapolis Center
04:49PM 44.1689 -83.8672 14° North 294 338 14,000  Level Minneapolis Center
04:50PM 44.2547 -83.8389 13° North 296 341 14,000  Level Minneapolis Center
04:51PM 44.3394 -83.8103 14° North 294 338 14,000 -480 Level Minneapolis Center
04:52PM 44.4150 -83.7847 14° North 285 328 13,000 -960 Descending Minneapolis Center
04:53PM 44.4908 -83.7589 14° North 266 306 12,000 -1,020 Descending Minneapolis Center
04:54PM 44.5567 -83.7369 13° North 250 288 11,000 -1,140 Descending Minneapolis Center
04:55PM 44.6247 -83.7108 15° North 241 277 9,700 -1,260 Descending Minneapolis Center
04:56PM 44.6881 -83.6842 17° North 239 275 8,500 -1,260 Descending Minneapolis Center
04:57PM 44.7561 -83.6564 16° North 238 274 7,200 -1,260 Descending Minneapolis Center
04:58PM 44.8183 -83.6306 16° North 236 272 6,000 -1,200 Descending Minneapolis Center
04:59PM 44.8831 -83.6033 17° North 231 266 4,700 -1,320 Descending Minneapolis Center
05:00PM 44.9456 -83.5769 17° North 222 255 3,300 -1,200 Descending Minneapolis Center
05:01PM 45.0000 -83.5608 12° North 205 236 2,300 -1,080 Descending Minneapolis Center
05:02PM 45.0442 -83.5608 360° North 154 177 1,100 -780 Descending Minneapolis Center
05:03PM 45.0811 -83.5608 360° North 136 157 700 -420 Descending Minneapolis Center